This is the latest recevied weather packets stored in our database for station/object KE0PRS. If no packets are shown the sender has not sent any weather packets the latest 10 day(s).
| Time | Temp. | Humidity | Pressure | Rain* | Wind** | Luminosity | Snow |
|---|---|---|---|---|---|---|---|
| 1787679808 | 20.56° C | 95% | 1021.6 hPa | 0 mm | - | 13 W/m² | - |
| 1787679508 | 21.11° C | 95% | 1021.9 hPa | 1.78 mm | - | 13 W/m² | - |
| 1787679204 | 21.67° C | 96% | 1021.9 hPa | 1.78 mm | - | 11 W/m² | - |
| 1787678899 | 21.67° C | 96% | 1021.9 hPa | 1.27 mm | - | 10 W/m² | - |
| 1787678598 | 21.67° C | 96% | 1022.2 hPa | 3.05 mm | - | 8 W/m² | - |
| 1787678294 | 21.11° C | 96% | 1022.3 hPa | 1.78 mm | - | 7 W/m² | - |
| 1787677989 | 20.56° C | 96% | 1022.5 hPa | 1.27 mm | - | 7 W/m² | - |
| 1787677684 | 20.56° C | 95% | 1022.6 hPa | 3.05 mm | - | 6 W/m² | - |
| 1787677383 | 20.56° C | 95% | 1023 hPa | 4.83 mm | - | 7 W/m² | - |
| 1787677082 | 20° C | 95% | 1023.2 hPa | 6.1 mm | - | 6 W/m² | - |
| 1787676778 | 19.44° C | 95% | 1022.8 hPa | 10.67 mm | - | 6 W/m² | - |
| 1787676472 | 18.89° C | 94% | 1023.2 hPa | 33.02 mm | - | 7 W/m² | - |
| 1787676171 | 19.44° C | 93% | 1023.4 hPa | 57.66 mm | - | 6 W/m² | - |
| 1787675864 | 20.56° C | 92% | 1023.1 hPa | 70.1 mm | - | 5 W/m² | - |
| 1787675561 | 21.11° C | 93% | 1022.5 hPa | 55.12 mm | - | 4 W/m² | - |
| 1787675258 | 21.11° C | 92% | 1022.8 hPa | 32.51 mm | - | 3 W/m² | - |
| 1787674954 | 21.67° C | 90% | 1021.9 hPa | 21.08 mm | - | 3 W/m² | - |
| 1787674650 | 22.78° C | 85% | 1021 hPa | 4.32 mm | - | 2 W/m² | - |
| 1787674345 | 25.56° C | 77% | 1021 hPa | 0 mm | - | 0 W/m² | - |
| 1787674040 | 27.78° C | 66% | 1021.1 hPa | 0 mm | - | 1 W/m² | - |
| 1787673735 | 27.78° C | 64% | 1020.2 hPa | 0 mm | - | 4 W/m² | - |
| 1787673434 | 28.33° C | 63% | 1019.8 hPa | 0 mm | - | 6 W/m² | - |
| 1787673124 | 28.33° C | 63% | 1019.4 hPa | 0 mm | - | 12 W/m² | - |
| 1787672823 | 28.89° C | 62% | 1019.1 hPa | 0 mm | - | 37 W/m² | - |
| 1787672520 | 29.44° C | 60% | 1018.6 hPa | 0 mm | - | 56 W/m² | - |
* Rain latest hour (hover to see other rain measurements)
** Current wind speed in m/s (hover to see current wind gust speed)